Time;durP1;ratioP1;P1;durP2;ratioP2;P2;SDS_P1;SDS_P2;PMS_P1;PMS_P2;Temp;Humidity;BMP_temperature;BMP_pressure;BME280_temperature;BME280_humidity;BME280_pressure;Samples;Min_cycle;Max_cycle;Signal;HPM_P1;HPM_P2
2022/05/16 00:04:01;;;;;;;11.50;6.70;;;;;;;9.23;63.62;99020.70;220606;1274;23958;-69
2022/05/16 00:09:06;;;;;;;8.70;6.20;;;;;;;9.16;63.77;99021.58;218631;1274;512459;-70
2022/05/16 00:14:11;;;;;;;9.60;6.30;;;;;;;9.07;63.84;99022.68;220559;1274;22608;-70
2022/05/16 00:19:39;;;;;;;10.10;6.90;;;;;;;8.98;64.36;99021.05;220529;1274;22719;-70
2022/05/16 00:25:16;;;;;;;11.80;6.80;;;;;;;8.90;64.56;99021.86;220624;1274;22625;-70
2022/05/16 00:30:30;;;;;;;10.20;6.40;;;;;;;8.82;64.91;99024.23;220524;1274;24396;-69
2022/05/16 00:35:36;;;;;;;9.40;6.40;;;;;;;8.76;65.04;99023.55;219553;1274;22577;-70
2022/05/16 00:40:38;;;;;;;11.70;6.60;;;;;;;8.70;65.25;99030.66;218722;1276;25409;-71
2022/05/16 00:45:56;;;;;;;11.10;6.20;;;;;;;8.65;65.55;99028.66;219156;1274;25148;-70
2022/05/16 00:51:04;;;;;;;9.30;6.10;;;;;;;8.60;66.03;99038.16;220764;1274;24174;-70
2022/05/16 00:56:11;;;;;;;10.70;5.90;;;;;;;8.57;66.44;99034.27;219249;1274;22561;-72
2022/05/16 01:06:49;;;;;;;11.50;6.80;;;;;;;8.45;67.12;99030.30;220627;1275;22736;-71
2022/05/16 01:12:25;;;;;;;13.80;7.90;;;;;;;8.36;67.23;99027.46;220628;1274;22579;-71
2022/05/16 01:17:37;;;;;;;10.90;7.30;;;;;;;8.30;67.40;99024.41;220451;1274;22543;-71
2022/05/16 01:22:55;;;;;;;12.60;7.70;;;;;;;8.24;67.81;99030.50;221254;1273;25424;-70
2022/05/16 01:28:09;;;;;;;12.80;6.80;;;;;;;8.20;67.69;99024.73;220727;1274;22783;-70
2022/05/16 01:33:19;;;;;;;12.50;7.00;;;;;;;8.18;68.02;99030.23;221208;1274;22553;-70
2022/05/16 01:38:26;;;;;;;10.60;6.40;;;;;;;8.16;67.84;99024.84;220628;1274;22605;-70
2022/05/16 01:44:07;;;;;;;11.40;6.80;;;;;;;8.11;67.88;99027.49;220524;1274;23832;-70
2022/05/16 01:49:48;;;;;;;9.70;6.40;;;;;;;8.06;68.14;99023.34;220698;1274;22592;-70
2022/05/16 01:55:17;;;;;;;11.40;6.50;;;;;;;8.01;68.33;99028.39;222032;1274;24289;-70
2022/05/16 02:00:30;;;;;;;9.60;5.50;;;;;;;7.97;68.50;99028.34;219370;1274;22549;-71
2022/05/16 02:06:17;;;;;;;13.30;6.80;;;;;;;7.94;68.90;99032.81;220841;1274;24201;-70
2022/05/16 02:11:50;;;;;;;10.10;6.20;;;;;;;7.90;69.30;99034.36;220834;1274;22559;-71
2022/05/16 02:17:18;;;;;;;11.40;6.90;;;;;;;7.86;69.13;99033.34;220571;1274;22542;-70
2022/05/16 02:29:06;;;;;;;9.30;6.70;;;;;;;7.81;69.80;99042.55;220635;1276;22579;-71
2022/05/16 02:34:30;;;;;;;10.70;6.60;;;;;;;7.77;69.98;99042.01;220632;1275;22570;-72
2022/05/16 02:39:36;;;;;;;12.40;7.00;;;;;;;7.70;70.03;99043.48;220791;1274;26601;-71
2022/05/16 02:44:43;;;;;;;11.70;6.90;;;;;;;7.63;70.25;99047.78;220687;1274;24685;-71
2022/05/16 02:49:49;;;;;;;10.80;7.20;;;;;;;7.55;70.10;99048.83;221101;1274;23102;-71
2022/05/16 02:54:52;;;;;;;10.80;7.60;;;;;;;7.46;70.33;99048.73;220475;1274;23361;-71
2022/05/16 02:59:55;;;;;;;11.20;6.50;;;;;;;7.39;70.15;99048.02;220734;1274;25380;-71
2022/05/16 03:05:00;;;;;;;13.40;7.80;;;;;;;7.33;70.27;99048.69;220651;1275;22581;-71
2022/05/16 03:10:11;;;;;;;13.60;8.50;;;;;;;7.31;70.41;99046.38;220487;1274;22558;-71
2022/05/16 03:16:06;;;;;;;13.60;8.20;;;;;;;7.33;70.62;99051.35;220555;1274;23926;-70
2022/05/16 03:21:19;;;;;;;13.00;7.60;;;;;;;7.35;70.67;99046.57;220624;1274;25491;-70
2022/05/16 03:26:22;;;;;;;12.30;7.20;;;;;;;7.41;70.66;99046.95;220439;1274;25326;-70
2022/05/16 03:31:24;;;;;;;15.00;7.30;;;;;;;7.56;71.17;99045.30;220573;1274;25099;-70
2022/05/16 03:36:30;;;;;;;12.10;7.10;;;;;;;7.89;71.12;99042.41;221282;1274;22544;-70
2022/05/16 03:41:35;;;;;;;11.20;7.60;;;;;;;8.30;71.11;99041.34;220572;1274;24979;-70
2022/05/16 03:47:00;;;;;;;10.40;7.70;;;;;;;8.85;70.61;99039.25;220593;1275;25165;-70
2022/05/16 03:52:06;;;;;;;12.20;7.40;;;;;;;9.34;70.11;99036.33;219098;1274;25435;-70
2022/05/16 03:57:16;;;;;;;14.20;7.50;;;;;;;9.72;69.46;99035.30;220160;1274;22620;-71
2022/05/16 04:02:22;;;;;;;13.40;8.00;;;;;;;9.93;68.81;99034.58;220531;1274;25195;-71
2022/05/16 04:07:28;;;;;;;10.00;7.40;;;;;;;10.06;68.28;99034.55;220697;1275;22549;-71
2022/05/16 04:12:34;;;;;;;14.30;8.00;;;;;;;10.10;67.87;99034.95;220482;1275;22615;-71
2022/05/16 04:17:41;;;;;;;14.00;8.70;;;;;;;10.14;67.55;99033.86;220779;1274;22673;-71
2022/05/16 04:22:46;;;;;;;19.20;9.50;;;;;;;10.17;67.63;99034.96;220724;1275;22566;-72
2022/05/16 04:27:52;;;;;;;14.00;8.80;;;;;;;10.19;67.34;99044.27;220761;1273;22548;-70
2022/05/16 04:33:01;;;;;;;17.00;9.00;;;;;;;10.18;67.00;99049.69;220752;1274;22632;-71
2022/05/16 04:38:07;;;;;;;12.30;8.30;;;;;;;10.15;67.03;99054.63;220650;1274;22601;-70
2022/05/16 04:43:10;;;;;;;11.40;7.80;;;;;;;10.24;67.38;99059.06;220567;1274;22569;-70
2022/05/16 04:48:12;;;;;;;11.60;8.10;;;;;;;10.38;67.59;99055.23;220594;1274;24373;-72
2022/05/16 04:53:14;;;;;;;11.90;7.50;;;;;;;10.58;67.13;99048.75;220511;1274;25398;-72
2022/05/16 04:58:17;;;;;;;12.50;7.80;;;;;;;10.76;67.08;99044.68;220434;1275;22575;-70
2022/05/16 05:03:19;;;;;;;11.50;7.70;;;;;;;10.97;67.28;99043.35;220683;1276;22643;-71
2022/05/16 05:08:21;;;;;;;13.70;7.60;;;;;;;11.18;67.20;99050.41;220598;1277;22616;-70
2022/05/16 05:19:07;;;;;;;17.80;9.90;;;;;;;11.49;66.95;99062.83;220870;1274;24236;-71
2022/05/16 05:24:09;;;;;;;16.90;10.30;;;;;;;11.56;66.50;99059.69;220467;1276;23303;-70
2022/05/16 05:29:19;;;;;;;16.10;8.70;;;;;;;11.70;66.62;99062.20;220642;1276;23339;-71
2022/05/16 05:34:24;;;;;;;12.60;8.60;;;;;;;11.89;66.28;99061.13;220841;1275;22572;-70
2022/05/16 05:39:31;;;;;;;11.50;7.80;;;;;;;12.10;65.54;99064.10;220692;1275;23206;-71
2022/05/16 05:44:33;;;;;;;11.00;7.80;;;;;;;12.34;65.45;99060.02;220711;1274;25372;-71
2022/05/16 05:49:46;;;;;;;14.00;7.90;;;;;;;12.60;65.50;99055.77;220792;1276;22547;-70
2022/05/16 05:55:18;;;;;;;11.40;8.50;;;;;;;12.89;65.03;99051.52;220874;1276;22679;-70
2022/05/16 06:00:27;;;;;;;11.20;7.40;;;;;;;13.20;64.48;99055.09;221180;1275;24269;-69
2022/05/16 06:05:53;;;;;;;12.10;8.40;;;;;;;13.50;64.13;99052.55;221053;1274;22680;-69
2022/05/16 06:10:55;;;;;;;10.90;6.70;;;;;;;13.79;63.64;99058.07;222840;1274;22712;-70
2022/05/16 06:16:13;;;;;;;10.30;7.00;;;;;;;14.05;62.75;99054.33;220975;1274;26726;-70
2022/05/16 06:21:38;;;;;;;8.90;6.00;;;;;;;14.35;62.64;99058.33;221162;1273;22573;-70
2022/05/16 06:26:43;;;;;;;9.90;6.60;;;;;;;14.60;62.04;99065.48;218537;1274;24252;-69
2022/05/16 06:31:50;;;;;;;11.30;7.30;;;;;;;14.84;61.45;99065.77;218541;1274;25081;-70
2022/05/16 06:36:52;;;;;;;12.50;8.50;;;;;;;15.10;61.27;99064.39;227141;1274;22388;-70
2022/05/16 06:41:55;;;;;;;8.20;6.60;;;;;;;15.41;61.05;99064.79;220309;1273;24190;-70
2022/05/16 06:47:01;;;;;;;9.30;6.00;;;;;;;15.74;60.19;99061.70;221066;1274;22618;-72
2022/05/16 06:52:06;;;;;;;5.70;4.40;;;;;;;16.05;58.96;99067.70;219266;1274;22563;-70
2022/05/16 06:57:13;;;;;;;7.60;4.90;;;;;;;16.32;56.99;99068.65;218913;1275;25344;-71
2022/05/16 07:02:15;;;;;;;6.40;4.20;;;;;;;16.48;55.47;99072.89;219021;1274;22770;-71
2022/05/16 07:07:18;;;;;;;8.40;4.30;;;;;;;16.78;55.30;99075.92;222297;1275;24081;-70
2022/05/16 07:12:23;;;;;;;3.70;2.90;;;;;;;17.13;54.63;99080.02;220786;1276;22535;-70
2022/05/16 07:17:25;;;;;;;5.50;3.70;;;;;;;17.45;53.23;99079.92;218735;1275;22561;-69
2022/05/16 07:22:27;;;;;;;6.60;4.00;;;;;;;17.78;53.12;99079.23;218744;1276;22773;-70
2022/05/16 07:32:55;;;;;;;11.40;4.00;;;;;;;18.25;51.97;99083.87;219815;1276;22544;-71
2022/05/16 07:38:11;;;;;;;5.20;3.70;;;;;;;18.42;50.95;99086.56;221091;1274;25266;-70
2022/05/16 07:43:22;;;;;;;6.40;3.90;;;;;;;18.60;50.45;99086.35;218387;1274;24999;-69
2022/05/16 07:48:27;;;;;;;5.10;3.00;;;;;;;18.76;49.02;99086.43;218669;1274;24840;-71
2022/05/16 07:53:35;;;;;;;4.30;2.40;;;;;;;18.89;48.01;99082.23;221364;1274;22591;-70
2022/05/16 07:58:51;;;;;;;3.10;1.60;;;;;;;19.03;47.04;99079.84;221090;1275;25313;-70
2022/05/16 08:03:53;;;;;;;2.70;1.30;;;;;;;19.19;46.05;99083.86;220766;1274;24235;-70
2022/05/16 08:14:21;;;;;;;2.50;1.20;;;;;;;19.46;44.30;99073.55;218784;1275;22641;-69
2022/05/16 08:19:29;;;;;;;0.90;0.80;;;;;;;19.59;43.64;99071.39;220681;1274;22549;-69
2022/05/16 08:24:31;;;;;;;1.40;0.90;;;;;;;19.69;42.50;99067.87;218940;1275;27440;-69
2022/05/16 08:29:33;;;;;;;1.10;0.70;;;;;;;19.83;42.44;99069.63;219015;1275;22623;-70
2022/05/16 08:34:41;;;;;;;1.70;0.80;;;;;;;20.05;41.54;99065.77;219042;1274;22539;-69
2022/05/16 08:39:53;;;;;;;2.30;1.00;;;;;;;20.14;40.50;99070.98;218683;1273;24317;-69
2022/05/16 08:45:10;;;;;;;2.90;2.00;;;;;;;20.23;40.51;99068.69;219395;1274;23093;-69
2022/05/16 08:50:35;;;;;;;1.80;1.30;;;;;;;20.42;39.87;99070.98;219172;1274;24786;-69
2022/05/16 08:56:08;;;;;;;2.60;1.00;;;;;;;20.64;39.79;99072.34;220813;1274;22601;-69
2022/05/16 09:01:33;;;;;;;2.40;1.10;;;;;;;20.77;39.52;99070.14;221060;1274;22696;-69
2022/05/16 09:06:49;;;;;;;5.20;2.10;;;;;;;20.90;39.40;99060.92;219016;1274;25448;-70
2022/05/16 09:12:07;;;;;;;2.00;1.20;;;;;;;21.13;39.19;99057.42;218935;1276;24210;-69
2022/05/16 09:17:27;;;;;;;3.80;1.20;;;;;;;21.34;38.56;99061.38;218774;1274;24155;-69
2022/05/16 09:22:51;;;;;;;3.00;1.40;;;;;;;21.50;38.74;99065.01;218918;1274;22535;-69
2022/05/16 09:33:24;;;;;;;2.70;1.50;;;;;;;21.92;37.89;99062.05;218751;1274;22564;-71
2022/05/16 09:38:26;;;;;;;2.10;1.40;;;;;;;21.97;37.40;99057.45;218838;1274;22601;-70
2022/05/16 09:43:43;;;;;;;2.70;1.50;;;;;;;21.90;36.95;99058.56;218918;1275;24145;-70
2022/05/16 09:48:45;;;;;;;3.80;1.50;;;;;;;21.91;36.90;99061.39;218739;1275;25407;-70
2022/05/16 09:53:49;;;;;;;3.20;1.90;;;;;;;21.93;36.51;99059.24;220645;1274;22748;-69
2022/05/16 09:59:13;;;;;;;3.70;1.70;;;;;;;21.93;35.38;99058.64;220828;1277;26360;-69
2022/05/16 10:04:20;;;;;;;4.10;1.40;;;;;;;21.93;35.24;99065.39;221122;1275;23045;-69
2022/05/16 10:09:46;;;;;;;3.90;1.50;;;;;;;22.14;35.61;99061.48;219611;1274;22706;-71
2022/05/16 10:14:49;;;;;;;2.70;1.90;;;;;;;22.39;35.29;99049.76;220997;1274;22560;-72
2022/05/16 10:19:59;;;;;;;1.80;1.60;;;;;;;22.51;35.05;99052.86;220811;1276;26662;-72
2022/05/16 10:25:06;;;;;;;3.90;1.90;;;;;;;22.55;35.17;99048.19;221764;1274;26444;-71
2022/05/16 10:30:20;;;;;;;4.90;2.40;;;;;;;22.55;34.49;99046.52;220944;1274;22563;-71
2022/05/16 10:35:30;;;;;;;2.60;1.70;;;;;;;22.61;34.21;99047.42;220719;1276;23173;-70
2022/05/16 10:40:49;;;;;;;;;;;;;;;22.72;34.10;99044.35;221479;1274;25526;-70
2022/05/16 10:45:58;;;;;;;3.40;1.50;;;;;;;22.94;33.68;99038.86;220813;1275;22636;-70
2022/05/16 10:51:12;;;;;;;1.30;1.10;;;;;;;23.19;33.55;99036.63;220965;1275;22668;-71
2022/05/16 10:56:59;;;;;;;2.70;1.90;;;;;;;23.35;33.03;99032.17;219240;1276;22724;-69
2022/05/16 11:02:22;;;;;;;6.10;4.20;;;;;;;23.51;32.51;99028.05;220685;1277;25200;-70
2022/05/16 11:08:10;;;;;;;3.30;2.10;;;;;;;23.65;32.33;99027.69;219730;1274;24349;-70
2022/05/16 11:13:59;;;;;;;2.30;1.40;;;;;;;23.79;32.12;99025.59;218746;1275;24219;-71
2022/05/16 11:19:20;;;;;;;3.70;1.90;;;;;;;23.90;31.68;99014.04;220988;1274;23558;-76
2022/05/16 11:24:49;;;;;;;2.60;1.50;;;;;;;24.10;32.20;99016.64;220835;1277;22481;-71
2022/05/16 11:30:12;;;;;;;1.90;1.60;;;;;;;24.31;31.64;99016.86;221053;1275;22662;-71
2022/05/16 11:35:47;;;;;;;3.20;1.30;;;;;;;24.26;31.57;99014.54;220925;1276;25327;-70
2022/05/16 11:41:31;;;;;;;4.00;3.40;;;;;;;24.15;31.34;99010.67;222494;1274;22610;-70
2022/05/16 11:46:50;;;;;;;2.10;1.80;;;;;;;24.06;30.61;99002.91;220816;1277;24305;-71
2022/05/16 11:52:43;;;;;;;3.20;1.50;;;;;;;24.05;31.30;98995.46;222818;1277;24709;-71
2022/05/16 12:03:20;;;;;;;3.00;1.90;;;;;;;24.31;30.60;98975.33;218537;1274;22559;-70
2022/05/16 12:08:25;;;;;;;1.60;1.30;;;;;;;24.47;30.87;98972.12;218649;1274;379896;-70
2022/05/16 12:13:32;;;;;;;2.90;2.40;;;;;;;24.73;31.05;98969.86;218861;1275;25330;-68
2022/05/16 12:18:40;;;;;;;2.80;1.20;;;;;;;24.84;30.67;98971.45;219102;1274;22557;-69
2022/05/16 12:23:54;;;;;;;1.50;1.40;;;;;;;24.87;30.56;98965.90;218667;1274;25379;-68
2022/05/16 12:29:09;;;;;;;4.00;1.50;;;;;;;24.78;31.01;98964.98;218761;1277;22548;-68
2022/05/16 12:34:33;;;;;;;2.80;1.60;;;;;;;24.64;31.02;98964.39;218758;1274;25312;-68
2022/05/16 12:40:25;;;;;;;3.00;1.60;;;;;;;24.58;31.26;98955.17;219554;1274;22547;-68
2022/05/16 12:45:43;;;;;;;3.30;2.70;;;;;;;24.53;31.18;98943.15;218288;1275;24816;-66
2022/05/16 12:51:04;;;;;;;2.20;1.60;;;;;;;24.39;31.13;98938.71;218540;1277;24530;-68
2022/05/16 12:56:27;;;;;;;1.80;1.50;;;;;;;24.13;31.13;98938.63;218679;1277;24323;-69
2022/05/16 13:01:37;;;;;;;2.10;1.50;;;;;;;23.97;31.29;98934.64;218448;1274;24514;-69
2022/05/16 13:07:03;;;;;;;2.20;1.70;;;;;;;23.88;31.75;98930.79;219418;1274;22540;-68
2022/05/16 13:12:44;;;;;;;3.60;1.60;;;;;;;23.82;31.64;98925.61;218704;1278;22746;-69
2022/05/16 13:17:53;;;;;;;2.40;1.20;;;;;;;23.86;31.97;98913.79;218639;1275;26352;-69
2022/05/16 13:22:55;;;;;;;5.10;1.40;;;;;;;23.89;31.82;98915.64;220568;1274;24429;-67
2022/05/16 13:33:28;;;;;;;1.80;1.60;;;;;;;23.84;31.63;98902.89;218770;1274;25399;-69
2022/05/16 13:38:37;;;;;;;2.70;1.50;;;;;;;23.83;31.52;98895.55;218880;1274;22749;-68
2022/05/16 13:43:39;;;;;;;2.60;1.60;;;;;;;23.84;31.39;98897.59;218940;1277;23454;-68
2022/05/16 13:48:42;;;;;;;2.90;1.30;;;;;;;23.86;31.06;98900.03;220680;1274;22596;-69
2022/05/16 13:53:45;;;;;;;2.50;1.50;;;;;;;23.89;31.24;98891.09;219575;1278;22837;-69
2022/05/16 13:59:00;;;;;;;3.60;1.50;;;;;;;23.94;31.08;98886.69;218532;1276;24383;-70
2022/05/16 14:04:15;;;;;;;2.40;1.30;;;;;;;23.93;30.69;98872.14;220689;1274;22532;-70
2022/05/16 14:09:25;;;;;;;1.30;1.10;;;;;;;23.89;30.53;98866.09;219570;1274;22597;-69
2022/05/16 14:14:29;;;;;;;4.70;1.50;;;;;;;23.92;30.32;98862.91;219023;1275;22567;-68
2022/05/16 14:19:45;;;;;;;1.70;1.60;;;;;;;23.93;30.32;98853.31;219742;1274;22567;-69
2022/05/16 14:24:59;;;;;;;3.10;1.70;;;;;;;23.99;30.60;98841.33;219107;1277;22780;-69
2022/05/16 14:30:11;;;;;;;1.90;1.30;;;;;;;24.09;30.46;98836.57;218967;1277;24265;-69
2022/05/16 14:35:21;;;;;;;1.60;1.40;;;;;;;24.20;30.40;98837.36;219300;1275;24231;-68
2022/05/16 14:40:33;;;;;;;2.90;1.20;;;;;;;24.36;30.42;98832.80;219250;1274;22653;-70
2022/05/16 14:51:27;;;;;;;2.80;1.30;;;;;;;24.50;29.87;98824.52;219561;1277;25395;-69
2022/05/16 14:56:37;;;;;;;1.80;1.70;;;;;;;24.50;29.66;98821.39;219340;1274;24348;-68
2022/05/16 15:07:02;;;;;;;2.00;1.50;;;;;;;24.36;29.50;98811.91;219085;1274;22703;-69
2022/05/16 15:12:11;;;;;;;2.90;1.50;;;;;;;24.37;29.74;98807.30;218966;1274;25872;-70
2022/05/16 15:17:21;;;;;;;2.30;1.80;;;;;;;24.31;29.60;98809.52;219164;1275;25471;-70
2022/05/16 15:22:43;;;;;;;2.60;1.50;;;;;;;24.16;29.46;98810.42;219002;1274;25465;-68
2022/05/16 15:27:45;;;;;;;3.20;1.90;;;;;;;24.07;29.90;98813.73;219225;1275;25484;-70
2022/05/16 15:32:50;;;;;;;4.50;2.00;;;;;;;24.06;29.89;98805.77;219122;1275;22549;-68
2022/05/16 15:37:55;;;;;;;2.50;1.50;;;;;;;24.08;30.26;98796.45;220186;1274;23695;-70
2022/05/16 15:43:00;;;;;;;3.60;1.60;;;;;;;24.10;30.34;98791.48;219204;1277;22544;-70
2022/05/16 15:48:09;;;;;;;2.40;1.70;;;;;;;24.11;30.21;98786.01;219256;1274;24325;-71
2022/05/16 15:53:12;;;;;;;3.30;1.60;;;;;;;24.09;29.90;98779.83;219888;1274;23019;-68
2022/05/16 15:58:17;;;;;;;2.00;1.50;;;;;;;23.99;29.34;98774.73;219348;1277;25642;-69
2022/05/16 16:09:00;;;;;;;1.60;1.40;;;;;;;23.89;29.91;98760.89;219080;1275;25411;-69
2022/05/16 16:14:02;;;;;;;2.50;1.40;;;;;;;23.86;29.63;98757.71;219514;1274;22544;-70
2022/05/16 16:19:06;;;;;;;2.10;1.50;;;;;;;23.88;29.54;98753.45;219738;1275;22645;-69
2022/05/16 16:24:16;;;;;;;1.60;1.50;;;;;;;23.84;29.49;98751.29;219469;1274;24331;-70
2022/05/16 16:29:18;;;;;;;3.20;1.60;;;;;;;23.76;29.38;98751.38;219495;1274;22618;-70
2022/05/16 16:34:34;;;;;;;3.30;1.80;;;;;;;23.68;29.80;98746.31;219171;1274;22549;-69
2022/05/16 16:39:59;;;;;;;5.50;1.50;;;;;;;23.58;29.95;98745.52;219167;1274;25410;-69
2022/05/16 16:45:04;;;;;;;4.80;1.80;;;;;;;23.38;30.06;98745.63;219170;1275;24283;-69
2022/05/16 16:50:16;;;;;;;2.80;1.50;;;;;;;23.13;30.20;98749.48;219245;1276;22717;-69
2022/05/16 17:00:43;;;;;;;5.60;1.70;;;;;;;22.83;30.18;98753.17;219215;1274;25243;-69
2022/05/16 17:05:59;;;;;;;;;;;;;;;22.79;30.29;98751.42;219249;1274;22548;-69
2022/05/16 17:11:03;;;;;;;2.40;1.70;;;;;;;22.69;30.30;98753.70;219120;1275;25454;-70
2022/05/16 17:16:16;;;;;;;3.70;1.60;;;;;;;22.61;30.27;98751.57;219232;1274;22537;-70
2022/05/16 17:21:21;;;;;;;5.60;1.60;;;;;;;22.67;30.57;98754.31;219231;1275;22577;-69
2022/05/16 17:26:24;;;;;;;1.90;1.40;;;;;;;22.92;30.50;98755.94;218979;1274;25269;-69
2022/05/16 17:31:27;;;;;;;2.70;1.50;;;;;;;23.06;30.49;98755.79;219040;1274;25351;-71
2022/05/16 17:36:30;;;;;;;6.00;2.70;;;;;;;22.81;30.27;98756.42;218940;1274;24329;-69
2022/05/16 17:41:33;;;;;;;6.40;2.10;;;;;;;22.49;30.80;98754.68;219141;1274;22594;-70
2022/05/16 17:46:37;;;;;;;3.90;2.00;;;;;;;22.18;30.73;98750.85;219462;1274;25374;-69
2022/05/16 17:51:43;;;;;;;3.60;1.80;;;;;;;21.92;31.04;98750.63;219459;1274;22616;-70
2022/05/16 17:56:52;;;;;;;3.60;1.80;;;;;;;21.70;31.71;98752.73;219041;1274;25495;-69
2022/05/16 18:01:57;;;;;;;3.50;2.00;;;;;;;21.48;32.08;98755.84;219197;1274;25338;-68
2022/05/16 18:07:00;;;;;;;3.40;1.90;;;;;;;21.22;32.38;98760.33;219208;1274;24646;-68
2022/05/16 18:17:27;;;;;;;3.70;1.70;;;;;;;20.64;33.16;98755.49;219303;1274;25339;-69
2022/05/16 18:22:33;;;;;;;5.20;2.10;;;;;;;20.34;33.46;98760.05;220312;1273;22571;-69
2022/05/16 18:27:36;;;;;;;3.80;2.00;;;;;;;20.04;33.90;98758.64;219789;1274;22562;-69
2022/05/16 18:32:43;;;;;;;6.00;3.20;;;;;;;19.75;33.86;98760.71;220864;1274;22586;-70
2022/05/16 18:37:46;;;;;;;4.30;3.30;;;;;;;19.45;34.25;98763.59;221170;1274;25383;-69
2022/05/16 18:53:58;;;;;;;8.40;5.00;;;;;;;18.71;35.28;98786.55;219182;1274;22541;-68
2022/05/16 18:59:05;;;;;;;5.00;3.60;;;;;;;18.52;35.72;98786.38;219389;1274;22593;-68
2022/05/16 19:04:13;;;;;;;5.40;3.70;;;;;;;18.38;35.83;98791.67;221675;1274;22575;-69
2022/05/16 19:09:15;;;;;;;7.10;4.20;;;;;;;18.27;36.66;98798.70;218834;1274;22680;-69
2022/05/16 19:14:19;;;;;;;8.40;4.40;;;;;;;18.18;37.14;98799.11;219336;1274;23859;-70
2022/05/16 19:19:24;;;;;;;6.00;4.10;;;;;;;18.09;37.78;98803.41;219641;1274;22627;-69
2022/05/16 19:24:26;;;;;;;11.60;4.50;;;;;;;18.02;38.63;98805.01;219773;1274;25450;-68
2022/05/16 19:34:53;;;;;;;6.20;4.60;;;;;;;17.76;40.20;98811.66;219199;1274;23904;-69
2022/05/16 19:39:59;;;;;;;5.80;3.40;;;;;;;17.63;40.66;98814.06;219151;1274;22711;-69
2022/05/16 19:45:09;;;;;;;4.70;3.70;;;;;;;17.49;40.71;98815.12;218920;1274;25460;-69
2022/05/16 19:50:35;;;;;;;7.80;4.50;;;;;;;17.36;40.66;98814.23;219102;1274;25337;-68
2022/05/16 19:55:42;;;;;;;7.90;4.30;;;;;;;17.26;40.93;98820.99;219523;1275;24051;-69
2022/05/16 20:00:48;;;;;;;8.30;4.50;;;;;;;17.17;40.97;98817.72;219887;1274;22581;-69
2022/05/16 20:05:51;;;;;;;8.10;4.30;;;;;;;17.09;41.23;98816.32;219129;1274;23355;-69
2022/05/16 20:10:56;;;;;;;5.10;3.70;;;;;;;17.01;41.54;98818.84;219829;1274;24129;-68
2022/05/16 20:16:08;;;;;;;9.70;4.00;;;;;;;16.98;41.97;98820.33;218861;1274;22539;-69
2022/05/16 20:21:25;;;;;;;9.10;3.80;;;;;;;16.96;42.21;98824.95;218963;1274;23923;-69
2022/05/16 20:26:37;;;;;;;9.20;4.50;;;;;;;16.92;42.42;98831.73;220182;1274;23850;-68
2022/05/16 20:31:39;;;;;;;6.20;4.60;;;;;;;16.90;42.81;98830.25;220860;1274;23003;-70
2022/05/16 20:36:54;;;;;;;8.30;5.60;;;;;;;16.88;43.17;98825.98;220413;1274;23185;-68
2022/05/16 20:42:07;;;;;;;12.90;5.50;;;;;;;16.86;43.34;98818.95;219793;1274;22586;-69
2022/05/16 20:47:12;;;;;;;9.20;4.90;;;;;;;16.83;43.65;98815.02;220233;1274;22557;-69
2022/05/16 20:52:15;;;;;;;10.50;4.70;;;;;;;16.77;43.91;98816.11;219242;1274;22547;-69
2022/05/16 20:57:17;;;;;;;9.20;4.80;;;;;;;16.68;44.14;98815.57;218882;1274;22545;-68
2022/05/16 21:02:22;;;;;;;8.60;4.90;;;;;;;16.59;44.44;98819.30;218939;1274;24383;-69
2022/05/16 21:07:25;;;;;;;9.80;5.40;;;;;;;16.50;45.09;98824.13;218844;1274;24330;-69
2022/05/16 21:12:45;;;;;;;10.10;5.60;;;;;;;16.39;45.41;98822.40;218997;1275;22613;-69
2022/05/16 21:17:49;;;;;;;11.90;5.70;;;;;;;16.29;45.72;98820.29;219351;1274;22764;-69
2022/05/16 21:22:54;;;;;;;10.00;5.40;;;;;;;16.18;45.95;98818.33;218905;1275;24285;-69
2022/05/16 21:28:13;;;;;;;9.10;5.00;;;;;;;16.07;46.19;98815.00;219202;1275;25765;-69
2022/05/16 21:33:56;;;;;;;9.60;4.30;;;;;;;15.94;46.56;98808.40;220130;1275;24316;-68
2022/05/16 21:39:03;;;;;;;9.90;5.50;;;;;;;15.84;46.76;98803.57;219040;1275;22543;-69
2022/05/16 21:49:31;;;;;;;9.00;5.50;;;;;;;15.63;47.52;98796.10;218754;1276;23871;-68
2022/05/16 21:54:33;;;;;;;9.00;5.00;;;;;;;15.53;47.94;98790.75;218808;1274;22567;-69
2022/05/16 21:59:38;;;;;;;9.40;5.20;;;;;;;15.41;48.34;98790.17;219572;1274;22680;-70
2022/05/16 22:04:41;;;;;;;10.10;5.20;;;;;;;15.28;48.70;98796.25;219047;1274;23114;-69
2022/05/16 22:10:01;;;;;;;7.50;4.80;;;;;;;15.14;49.04;98794.35;220507;1274;22535;-69
2022/05/16 22:16:02;;;;;;;8.10;4.80;;;;;;;15.04;49.53;98792.03;219138;1274;25329;-69
2022/05/16 22:21:44;;;;;;;8.30;5.60;;;;;;;14.94;50.17;98787.97;218974;1275;26112;-69
2022/05/16 22:26:47;;;;;;;7.60;4.80;;;;;;;14.86;50.49;98783.40;219214;1274;22698;-69
2022/05/16 22:32:00;;;;;;;7.50;5.20;;;;;;;14.80;50.65;98791.46;218984;1276;24357;-69
2022/05/16 22:37:09;;;;;;;6.80;4.60;;;;;;;14.75;51.08;98793.35;219078;1275;24264;-70
2022/05/16 22:42:36;;;;;;;6.50;5.10;;;;;;;14.70;51.27;98790.23;218700;1276;25461;-69
2022/05/16 22:47:50;;;;;;;8.20;4.90;;;;;;;14.68;51.46;98790.13;219112;1274;24254;-70
2022/05/16 22:53:14;;;;;;;8.60;4.60;;;;;;;14.68;51.50;98799.05;219172;1274;24242;-68
2022/05/16 22:58:35;;;;;;;10.20;4.80;;;;;;;14.63;52.00;98790.58;219182;1274;24810;-69
2022/05/16 23:04:18;;;;;;;11.90;4.40;;;;;;;14.59;52.08;98786.44;219121;1274;22552;-69
2022/05/16 23:09:38;;;;;;;6.70;4.40;;;;;;;14.54;52.43;98788.36;219146;1274;25427;-68
2022/05/16 23:14:47;;;;;;;7.70;4.20;;;;;;;14.49;52.63;98785.70;219702;1274;25490;-68
2022/05/16 23:20:06;;;;;;;8.50;5.00;;;;;;;14.44;53.02;98780.44;219113;1274;25410;-69
2022/05/16 23:25:31;;;;;;;8.70;4.40;;;;;;;14.41;53.25;98784.14;219160;1274;22621;-68
2022/05/16 23:30:38;;;;;;;8.20;3.80;;;;;;;14.35;53.36;98778.96;219008;1274;22661;-68
2022/05/16 23:41:20;;;;;;;5.90;3.70;;;;;;;14.36;53.65;98770.27;219064;1274;23999;-69
2022/05/16 23:46:23;;;;;;;6.70;3.60;;;;;;;14.36;53.81;98757.35;218527;1276;23191;-69
2022/05/16 23:51:29;;;;;;;7.70;3.70;;;;;;;14.34;53.73;98764.94;218882;1276;22700;-69
2022/05/16 23:56:36;;;;;;;8.50;4.20;;;;;;;14.30;53.95;98774.33;219205;1274;24292;-68
